Weather History for Fairmont, MN

Change the Weather History Date:

Monday, June 17, 2013

  Actual Average Record
Temperature  
Mean Temperature 73 °F -  
Max Temperature 84 °F 79 °F 93 °F (1949)
Min Temperature 62 °F 57 °F 44 °F (1950)
Cooling Degree Days 8    
Growing Degree Days 23 (Base 50)    
Moisture  
Dew Point 50 °F    
Average Humidity 44    
Maximum Humidity 72    
Minimum Humidity 25    
Precipitation  
Precipitation 0.00 in - - ()
Sea Level Pressure  
Sea Level Pressure 29.96 in    
Wind  
Wind Speed 11 mph (NW)    
Max Wind Speed 21 mph    
Max Gust Speed 26 mph    
Visibility 10 miles    
Events      
Averages and records for this station are not official NWS values.
T = Trace of Precipitation, MM = Missing Value Source: NWS Daily Summary

Daily Weather History Graph

Daily Weather History Graph

Search for Another Location

Airport:

Trip Planner

Search our weather history database for the weather conditions in past years. The results will help you decide how hot, cold, wet, or windy it might be!

Date:

Astronomy

Jun. 17, 2013 Rise Set
Actual Time 5:35 AM CDT 9:01 PM CDT
Civil Twilight 4:59 AM CDT 9:37 PM CDT
Nautical Twilight 4:12 AM CDT 10:24 PM CDT
Astronomical Twilight 3:13 AM CDT 11:24 PM CDT
Moon 2:32 PM CDT (6/17) 1:22 AM CDT (6/17)
Length of Visible Light 16h 38m
Length of Day
15h 26m
First Quarter, 60% of the Moon is Illuminated
Jun 17
First Quarter
Jun 23
Full
Jun 29
Last Quarter
Jul 8
New
Jul 15
First Quarter

Hourly Weather History & Observations

Time (CDT) Temp. Dew Point Humidity Pressure Visibility Wind Dir Wind Speed Gust Speed Precip Events Conditions
12:15 AM 69.8 °F 48.2 °F 46% 29.95 in 10.0 mi WSW 11.5 mph - N/A   Clear
12:35 AM 69.8 °F 48.2 °F 46% 29.94 in 10.0 mi West 12.7 mph 18.4 mph N/A   Clear
12:55 AM 69.8 °F 48.2 °F 46% 29.94 in 10.0 mi West 11.5 mph - N/A   Clear
1:15 AM 69.8 °F 48.2 °F 46% 29.94 in 10.0 mi West 11.5 mph - N/A   Clear
1:35 AM 68.0 °F 48.2 °F 49% 29.95 in 10.0 mi West 13.8 mph - N/A   Clear
1:55 AM 68.0 °F 48.2 °F 49% 29.95 in 10.0 mi West 13.8 mph - N/A   Clear
2:15 AM 68.0 °F 48.2 °F 49% 29.95 in 10.0 mi West 13.8 mph - N/A   Clear
2:35 AM 68.0 °F 50.0 °F 52% 29.94 in 10.0 mi West 13.8 mph - N/A   Clear
2:55 AM 66.2 °F 50.0 °F 56% 29.95 in 10.0 mi West 12.7 mph - N/A   Clear
3:15 AM 68.0 °F 51.8 °F 56% 29.94 in 10.0 mi West 10.4 mph - N/A   Clear
3:35 AM 68.0 °F 51.8 °F 56% 29.94 in 10.0 mi West 11.5 mph - N/A   Clear
3:55 AM 66.2 °F 51.8 °F 60% 29.94 in 10.0 mi West 10.4 mph - N/A   Clear
4:15 AM 66.2 °F 51.8 °F 60% 29.93 in 10.0 mi West 11.5 mph - N/A   Clear
4:35 AM 66.2 °F 51.8 °F 60% 29.93 in 10.0 mi West 9.2 mph - N/A   Clear
4:55 AM 66.2 °F 53.6 °F 64% 29.93 in 10.0 mi WNW 9.2 mph - N/A   Clear
5:15 AM 64.4 °F 53.6 °F 68% 29.93 in 10.0 mi WNW 6.9 mph - N/A   Clear
5:35 AM 62.6 °F 53.6 °F 72% 29.93 in 10.0 mi NW 6.9 mph - N/A   Clear
5:55 AM 62.6 °F 53.6 °F 72% 29.94 in 10.0 mi NW 6.9 mph - N/A   Clear
6:15 AM 64.4 °F 53.6 °F 68% 29.94 in 10.0 mi NW 5.8 mph - N/A   Clear
6:35 AM 64.4 °F 53.6 °F 68% 29.95 in 10.0 mi NW 9.2 mph - N/A   Clear
6:55 AM 66.2 °F 53.6 °F 64% 29.96 in 10.0 mi NW 10.4 mph - N/A   Clear
7:15 AM 66.2 °F 53.6 °F 64% 29.97 in 10.0 mi NW 9.2 mph - N/A   Clear
7:35 AM 68.0 °F 53.6 °F 60% 29.98 in 10.0 mi NW 10.4 mph - N/A   Clear
7:55 AM 69.8 °F 53.6 °F 56% 29.98 in 10.0 mi NNW 6.9 mph - N/A   Clear
8:15 AM 71.6 °F 53.6 °F 53% 29.98 in 10.0 mi NNW 8.1 mph - N/A   Clear
8:35 AM 71.6 °F 53.6 °F 53% 29.98 in 10.0 mi NW 8.1 mph - N/A   Clear
8:55 AM 73.4 °F 53.6 °F 50% 29.98 in 10.0 mi NNW 8.1 mph - N/A   Clear
9:15 AM 75.2 °F 53.6 °F 47% 29.99 in 10.0 mi NNW 5.8 mph - N/A   Clear
9:35 AM 75.2 °F 53.6 °F 47% 29.99 in 10.0 mi WNW 3.5 mph - N/A   Clear
9:55 AM 78.8 °F 51.8 °F 39% 29.99 in 10.0 mi Calm Calm - N/A   Clear
10:15 AM 78.8 °F 48.2 °F 34% 30.00 in 10.0 mi Calm Calm - N/A   Clear
10:35 AM 78.8 °F 48.2 °F 34% 29.99 in 10.0 mi WNW 5.8 mph - N/A   Clear
10:55 AM 80.6 °F 48.2 °F 32% 30.00 in 10.0 mi West 11.5 mph - N/A   Clear
11:15 AM 80.6 °F 46.4 °F 30% 29.99 in 10.0 mi WNW 9.2 mph 16.1 mph N/A   Partly Cloudy
11:35 AM 80.6 °F 46.4 °F 30% 29.99 in 10.0 mi WNW 9.2 mph - N/A   Clear
11:55 AM 80.6 °F 46.4 °F 30% 29.99 in 10.0 mi WNW 8.1 mph 17.3 mph N/A   Clear
12:15 PM 82.4 °F 48.2 °F 30% 29.99 in 10.0 mi West 11.5 mph - N/A   Clear
12:35 PM 82.4 °F 48.2 °F 30% 29.98 in 10.0 mi NW 9.2 mph 18.4 mph N/A   Clear
12:55 PM 82.4 °F 48.2 °F 30% 29.98 in 10.0 mi WNW 17.3 mph 25.3 mph N/A   Clear
1:15 PM 82.4 °F 48.2 °F 30% 29.98 in 10.0 mi WNW 6.9 mph 17.3 mph N/A   Partly Cloudy
1:35 PM 82.4 °F 48.2 °F 30% 29.98 in 10.0 mi NW 13.8 mph 20.7 mph N/A   Scattered Clouds
1:55 PM 82.4 °F 48.2 °F 30% 29.97 in 10.0 mi WNW 19.6 mph 23.0 mph N/A   Partly Cloudy
2:15 PM 84.2 °F 46.4 °F 27% 29.97 in 10.0 mi West 13.8 mph - N/A   Scattered Clouds
2:35 PM 84.2 °F 48.2 °F 29% 29.96 in 10.0 mi WNW 16.1 mph - N/A   Scattered Clouds
2:55 PM 82.4 °F 48.2 °F 30% 29.95 in 10.0 mi WNW 15.0 mph 21.9 mph N/A   Mostly Cloudy
3:15 PM 84.2 °F 46.4 °F 27% 29.95 in 10.0 mi NW 20.7 mph 26.5 mph N/A   Partly Cloudy
3:35 PM 84.2 °F 44.6 °F 25% 29.95 in 10.0 mi WNW 20.7 mph 25.3 mph N/A   Clear
3:55 PM 84.2 °F 46.4 °F 27% 29.95 in 10.0 mi WNW 12.7 mph 20.7 mph N/A   Partly Cloudy
4:15 PM 84.2 °F 46.4 °F 27% 29.95 in 10.0 mi NW 19.6 mph - N/A   Partly Cloudy
4:35 PM 84.2 °F 44.6 °F 25% 29.95 in 10.0 mi NW 16.1 mph - N/A   Clear
4:55 PM 82.4 °F 46.4 °F 28% 29.95 in 10.0 mi NW 17.3 mph - N/A   Clear
5:15 PM 82.4 °F 46.4 °F 28% 29.95 in 10.0 mi NW 16.1 mph 24.2 mph N/A   Clear
5:35 PM 82.4 °F 46.4 °F 28% 29.95 in 10.0 mi NW 16.1 mph 21.9 mph N/A   Clear
5:55 PM 80.6 °F 46.4 °F 30% 29.95 in 10.0 mi NW 15.0 mph - N/A   Clear
6:15 PM 80.6 °F 46.4 °F 30% 29.94 in 10.0 mi NW 13.8 mph - N/A   Clear
6:35 PM 80.6 °F 46.4 °F 30% 29.94 in 10.0 mi NW 15.0 mph - N/A   Clear
6:55 PM 78.8 °F 48.2 °F 34% 29.94 in 10.0 mi NW 10.4 mph 20.7 mph N/A   Clear
7:15 PM 78.8 °F 48.2 °F 34% 29.94 in 10.0 mi NNW 11.5 mph - N/A   Clear
7:35 PM 80.6 °F 48.2 °F 32% 29.94 in 10.0 mi NW 11.5 mph 16.1 mph N/A   Clear
7:55 PM 78.8 °F 48.2 °F 34% 29.94 in 10.0 mi NNW 12.7 mph - N/A   Clear
8:15 PM 78.8 °F 48.2 °F 34% 29.94 in 10.0 mi NW 9.2 mph - N/A   Scattered Clouds
8:35 PM 77.0 °F 50.0 °F 39% 29.95 in 10.0 mi NNW 8.1 mph - N/A   Mostly Cloudy
8:55 PM 75.2 °F 51.8 °F 44% 29.95 in 10.0 mi NNW 6.9 mph - N/A   Partly Cloudy
9:15 PM 73.4 °F 51.8 °F 47% 29.95 in 10.0 mi NW 6.9 mph - N/A   Clear
9:35 PM 71.6 °F 51.8 °F 50% 29.96 in 10.0 mi NW 4.6 mph - N/A   Clear
9:55 PM 69.8 °F 51.8 °F 53% 29.97 in 10.0 mi NW 3.5 mph - N/A   Clear
10:15 PM 69.8 °F 51.8 °F 53% 29.98 in 10.0 mi WNW 4.6 mph - N/A   Scattered Clouds
10:35 PM 69.8 °F 51.8 °F 53% 29.99 in 10.0 mi NNW 5.8 mph - N/A   Scattered Clouds
10:55 PM 68.0 °F 51.8 °F 56% 29.99 in 10.0 mi NNW 6.9 mph - N/A   Partly Cloudy
11:15 PM 68.0 °F 51.8 °F 56% 29.99 in 10.0 mi North 8.1 mph - N/A   Clear
11:35 PM 69.8 °F 53.6 °F 56% 30.00 in 10.0 mi North 5.8 mph - N/A   Clear
11:55 PM 68.0 °F 53.6 °F 60% 30.00 in 10.0 mi NNE 5.8 mph - N/A   Clear